Aviation Digital Data Service (ADDS)

Output produced by TAFs form (1631 UTC 19 February 2017)
found at http://www.aviationweather.gov/adds/tafs/
 
KBJC 191553Z 00000KT 30SM BKN120 BKN200 08/M04 A2972
KBJC 191136Z 1912/2012 31006KT P6SM BKN200 
     FM191500 10006KT P6SM FEW120 BKN200 
     FM192000 12010KT P6SM SCT120 BKN200 
     FM192300 18012G18KT P6SM VCSH SCT080 BKN120 BKN200 
     FM200200 28020G35KT P6SM VCSH SCT060 BKN100 
     FM200400 29025G38KT P6SM FEW080 BKN200 
     FM201000 29015G25KT P6SM FEW080 SCT200